sensor_id;sensor_type;location;lat;lon;timestamp;pressure;altitude;pressure_sealevel;temperature
67509;BMP280;54354;44.724;11.284;2023-03-18T00:00:46;101894.56;;;14.66
67509;BMP280;54354;44.724;11.284;2023-03-18T00:03:11;101894.59;;;14.62
67509;BMP280;54354;44.724;11.284;2023-03-18T00:05:37;101898.84;;;14.59
67509;BMP280;54354;44.724;11.284;2023-03-18T00:08:04;101890.53;;;14.54
67509;BMP280;54354;44.724;11.284;2023-03-18T00:10:31;101893.25;;;14.50
67509;BMP280;54354;44.724;11.284;2023-03-18T00:12:58;101902.78;;;14.51
67509;BMP280;54354;44.724;11.284;2023-03-18T00:15:24;101899.00;;;14.49
67509;BMP280;54354;44.724;11.284;2023-03-18T00:17:49;101901.31;;;14.47
67509;BMP280;54354;44.724;11.284;2023-03-18T00:20:16;101887.63;;;14.45
67509;BMP280;54354;44.724;11.284;2023-03-18T00:22:43;101885.44;;;14.40
67509;BMP280;54354;44.724;11.284;2023-03-18T00:25:11;101883.97;;;14.35
67509;BMP280;54354;44.724;11.284;2023-03-18T00:27:38;101882.84;;;14.32
67509;BMP280;54354;44.724;11.284;2023-03-18T00:30:05;101895.84;;;14.27
67509;BMP280;54354;44.724;11.284;2023-03-18T00:32:31;101888.31;;;14.22
67509;BMP280;54354;44.724;11.284;2023-03-18T00:34:57;101887.19;;;14.19
67509;BMP280;54354;44.724;11.284;2023-03-18T00:37:24;101886.53;;;14.12
67509;BMP280;54354;44.724;11.284;2023-03-18T00:40:03;101884.75;;;14.01
67509;BMP280;54354;44.724;11.284;2023-03-18T00:42:38;101876.47;;;13.96
67509;BMP280;54354;44.724;11.284;2023-03-18T00:45:08;101888.66;;;13.93
67509;BMP280;54354;44.724;11.284;2023-03-18T00:47:35;101888.31;;;13.91
67509;BMP280;54354;44.724;11.284;2023-03-18T00:50:03;101878.50;;;13.85
67509;BMP280;54354;44.724;11.284;2023-03-18T00:52:30;101873.19;;;13.81
67509;BMP280;54354;44.724;11.284;2023-03-18T00:54:56;101872.13;;;13.75
67509;BMP280;54354;44.724;11.284;2023-03-18T00:57:22;101874.78;;;13.75
67509;BMP280;54354;44.724;11.284;2023-03-18T00:59:49;101877.09;;;13.73
67509;BMP280;54354;44.724;11.284;2023-03-18T01:02:14;101880.91;;;13.72
67509;BMP280;54354;44.724;11.284;2023-03-18T01:04:43;101879.41;;;13.71
67509;BMP280;54354;44.724;11.284;2023-03-18T01:07:09;101877.09;;;13.73
67509;BMP280;54354;44.724;11.284;2023-03-18T01:09:35;101860.38;;;13.72
67509;BMP280;54354;44.724;11.284;2023-03-18T01:12:01;101870.66;;;13.74
67509;BMP280;54354;44.724;11.284;2023-03-18T01:14:26;101864.56;;;13.70
67509;BMP280;54354;44.724;11.284;2023-03-18T01:16:54;101869.19;;;13.66
67509;BMP280;54354;44.724;11.284;2023-03-18T01:19:20;101865.47;;;13.60
67509;BMP280;54354;44.724;11.284;2023-03-18T01:21:47;101863.59;;;13.57
67509;BMP280;54354;44.724;11.284;2023-03-18T01:24:12;101862.84;;;13.56
67509;BMP280;54354;44.724;11.284;2023-03-18T01:26:38;101853.00;;;13.53
67509;BMP280;54354;44.724;11.284;2023-03-18T01:29:03;101844.59;;;13.55
67509;BMP280;54354;44.724;11.284;2023-03-18T01:31:30;101843.47;;;13.52
67509;BMP280;54354;44.724;11.284;2023-03-18T01:34:02;101840.47;;;13.50
67509;BMP280;54354;44.724;11.284;2023-03-18T01:36:37;101839.31;;;13.51
67509;BMP280;54354;44.724;11.284;2023-03-18T01:39:06;101835.94;;;13.47
67509;BMP280;54354;44.724;11.284;2023-03-18T01:41:32;101839.00;;;13.45
67509;BMP280;54354;44.724;11.284;2023-03-18T01:43:58;101830.31;;;13.41
67509;BMP280;54354;44.724;11.284;2023-03-18T01:46:41;101828.44;;;13.38
67509;BMP280;54354;44.724;11.284;2023-03-18T01:49:15;101826.56;;;13.35
67509;BMP280;54354;44.724;11.284;2023-03-18T01:51:45;101827.34;;;13.32
67509;BMP280;54354;44.724;11.284;2023-03-18T01:54:12;101826.94;;;13.34
67509;BMP280;54354;44.724;11.284;2023-03-18T01:56:40;101823.59;;;13.26
67509;BMP280;54354;44.724;11.284;2023-03-18T01:59:07;101827.81;;;13.23
67509;BMP280;54354;44.724;11.284;2023-03-18T02:02:22;101824.47;;;13.16
67509;BMP280;54354;44.724;11.284;2023-03-18T02:04:44;101818.34;;;13.19
67509;BMP280;54354;44.724;11.284;2023-03-18T02:07:16;101815.81;;;13.08
67509;BMP280;54354;44.724;11.284;2023-03-18T02:09:42;101820.31;;;13.11
67509;BMP280;54354;44.724;11.284;2023-03-18T02:12:10;101813.94;;;13.02
67509;BMP280;54354;44.724;11.284;2023-03-18T02:14:37;101820.03;;;13.02
67509;BMP280;54354;44.724;11.284;2023-03-18T02:17:08;101809.81;;;12.97
67509;BMP280;54354;44.724;11.284;2023-03-18T02:19:43;101824.59;;;13.02
67509;BMP280;54354;44.724;11.284;2023-03-18T02:22:36;101811.69;;;13.00
67509;BMP280;54354;44.724;11.284;2023-03-18T02:28:01;101804.53;;;12.90
67509;BMP280;54354;44.724;11.284;2023-03-18T02:30:34;101807.63;;;12.88
67509;BMP280;54354;44.724;11.284;2023-03-18T02:33:04;101804.16;;;12.91
67509;BMP280;54354;44.724;11.284;2023-03-18T02:35:30;101797.72;;;12.89
67509;BMP280;54354;44.724;11.284;2023-03-18T02:37:59;101801.16;;;12.86
67509;BMP280;54354;44.724;11.284;2023-03-18T02:40:33;101799.00;;;12.73
67509;BMP280;54354;44.724;11.284;2023-03-18T02:43:23;101802.00;;;12.76
67509;BMP280;54354;44.724;11.284;2023-03-18T02:48:48;101802.84;;;12.62
67509;BMP280;54354;44.724;11.284;2023-03-18T02:51:15;101803.31;;;12.53
67509;BMP280;54354;44.724;11.284;2023-03-18T02:53:42;101802.56;;;12.49
67509;BMP280;54354;44.724;11.284;2023-03-18T02:56:10;101800.31;;;12.44
67509;BMP280;54354;44.724;11.284;2023-03-18T02:58:38;101800.31;;;12.48
67509;BMP280;54354;44.724;11.284;2023-03-18T03:18:17;101814.09;;;12.25
67509;BMP280;54354;44.724;11.284;2023-03-18T03:20:43;101814.19;;;12.10
67509;BMP280;54354;44.724;11.284;2023-03-18T03:23:12;101819.91;;;11.98
67509;BMP280;54354;44.724;11.284;2023-03-18T03:25:39;101816.09;;;12.03
67509;BMP280;54354;44.724;11.284;2023-03-18T03:28:06;101811.94;;;11.94
67509;BMP280;54354;44.724;11.284;2023-03-18T03:30:33;101822.22;;;11.92
67509;BMP280;54354;44.724;11.284;2023-03-18T03:32:59;101820.69;;;11.88
67509;BMP280;54354;44.724;11.284;2023-03-18T03:35:26;101822.59;;;11.84
67509;BMP280;54354;44.724;11.284;2023-03-18T03:37:51;101820.34;;;11.82
67509;BMP280;54354;44.724;11.284;2023-03-18T03:40:19;101824.91;;;11.78
67509;BMP280;54354;44.724;11.284;2023-03-18T03:42:45;101819.22;;;11.76
67509;BMP280;54354;44.724;11.284;2023-03-18T03:45:13;101817.72;;;11.68
67509;BMP280;54354;44.724;11.284;2023-03-18T03:47:40;101820.78;;;11.66
67509;BMP280;54354;44.724;11.284;2023-03-18T03:50:07;101818.47;;;11.65
67509;BMP280;54354;44.724;11.284;2023-03-18T03:52:33;101816.63;;;11.65
67509;BMP280;54354;44.724;11.284;2023-03-18T03:54:58;101809.00;;;11.64
67509;BMP280;54354;44.724;11.284;2023-03-18T03:57:26;101811.69;;;11.60
67509;BMP280;54354;44.724;11.284;2023-03-18T03:59:53;101802.22;;;11.56
67509;BMP280;54354;44.724;11.284;2023-03-18T04:02:26;101805.66;;;11.53
67509;BMP280;54354;44.724;11.284;2023-03-18T04:04:53;101811.69;;;11.46
67509;BMP280;54354;44.724;11.284;2023-03-18T04:07:23;101809.47;;;11.45
67509;BMP280;54354;44.724;11.284;2023-03-18T04:09:49;101812.88;;;11.45
67509;BMP280;54354;44.724;11.284;2023-03-18T04:12:15;101810.59;;;11.47
67509;BMP280;54354;44.724;11.284;2023-03-18T04:14:49;101812.09;;;11.48
67509;BMP280;54354;44.724;11.284;2023-03-18T04:17:14;101809.44;;;11.52
67509;BMP280;54354;44.724;11.284;2023-03-18T04:19:41;101807.53;;;11.52
67509;BMP280;54354;44.724;11.284;2023-03-18T04:22:07;101807.16;;;11.54
67509;BMP280;54354;44.724;11.284;2023-03-18T04:24:32;101808.28;;;11.56
67509;BMP280;54354;44.724;11.284;2023-03-18T04:26:58;101801.44;;;11.55
67509;BMP280;54354;44.724;11.284;2023-03-18T04:29:23;101803.38;;;11.51
67509;BMP280;54354;44.724;11.284;2023-03-18T04:31:50;101810.94;;;11.46
67509;BMP280;54354;44.724;11.284;2023-03-18T04:34:15;101808.28;;;11.46
67509;BMP280;54354;44.724;11.284;2023-03-18T04:36:42;101809.47;;;11.45
67509;BMP280;54354;44.724;11.284;2023-03-18T04:39:08;101802.63;;;11.43
67509;BMP280;54354;44.724;11.284;2023-03-18T04:41:34;101804.91;;;11.45
67509;BMP280;54354;44.724;11.284;2023-03-18T04:44:03;101812.88;;;11.45
67509;BMP280;54354;44.724;11.284;2023-03-18T04:46:38;101806.38;;;11.46
67509;BMP280;54354;44.724;11.284;2023-03-18T04:49:04;101806.03;;;11.48
67509;BMP280;54354;44.724;11.284;2023-03-18T04:51:30;101805.63;;;11.46
67509;BMP280;54354;44.724;11.284;2023-03-18T04:53:56;101808.69;;;11.48
67509;BMP280;54354;44.724;11.284;2023-03-18T04:56:26;101803.78;;;11.53
67509;BMP280;54354;44.724;11.284;2023-03-18T04:58:52;101808.69;;;11.48
67509;BMP280;54354;44.724;11.284;2023-03-18T05:01:24;101811.69;;;11.46
67509;BMP280;54354;44.724;11.284;2023-03-18T05:03:51;101809.81;;;11.43
67509;BMP280;54354;44.724;11.284;2023-03-18T05:06:23;101796.59;;;11.36
67509;BMP280;54354;44.724;11.284;2023-03-18T05:08:54;101801.50;;;11.37
67509;BMP280;54354;44.724;11.284;2023-03-18T05:11:21;101802.66;;;11.36
67509;BMP280;54354;44.724;11.284;2023-03-18T05:13:48;101798.84;;;11.34
67509;BMP280;54354;44.724;11.284;2023-03-18T05:16:16;101789.75;;;11.31
67509;BMP280;54354;44.724;11.284;2023-03-18T05:18:41;101793.56;;;11.30
67509;BMP280;54354;44.724;11.284;2023-03-18T05:21:08;101786.38;;;11.27
67509;BMP280;54354;44.724;11.284;2023-03-18T05:23:36;101790.53;;;11.25
67509;BMP280;54354;44.724;11.284;2023-03-18T05:26:03;101792.44;;;11.21
67509;BMP280;54354;44.724;11.284;2023-03-18T05:28:30;101792.44;;;11.24
67509;BMP280;54354;44.724;11.284;2023-03-18T05:31:23;101791.28;;;11.25
67509;BMP280;54354;44.724;11.284;2023-03-18T05:33:49;101789.41;;;11.19
67509;BMP280;54354;44.724;11.284;2023-03-18T05:36:15;101794.69;;;11.15
67509;BMP280;54354;44.724;11.284;2023-03-18T05:38:52;101790.91;;;11.16
67509;BMP280;54354;44.724;11.284;2023-03-18T05:41:18;101796.22;;;11.16
67509;BMP280;54354;44.724;11.284;2023-03-18T05:43:45;101794.31;;;11.16
67509;BMP280;54354;44.724;11.284;2023-03-18T05:46:12;101795.47;;;11.19
67509;BMP280;54354;44.724;11.284;2023-03-18T05:48:56;101798.47;;;11.28
67509;BMP280;54354;44.724;11.284;2023-03-18T05:51:25;101793.94;;;11.36
67509;BMP280;54354;44.724;11.284;2023-03-18T05:53:52;101799.59;;;11.38
67509;BMP280;54354;44.724;11.284;2023-03-18T05:56:22;101793.91;;;11.50
67509;BMP280;54354;44.724;11.284;2023-03-18T05:58:51;101799.94;;;11.54
67509;BMP280;54354;44.724;11.284;2023-03-18T06:01:40;101797.25;;;11.61
67509;BMP280;54354;44.724;11.284;2023-03-18T06:04:07;101800.31;;;11.63
67509;BMP280;54354;44.724;11.284;2023-03-18T06:06:34;101805.97;;;11.69
67509;BMP280;54354;44.724;11.284;2023-03-18T06:09:02;101809.34;;;11.77
67509;BMP280;54354;44.724;11.284;2023-03-18T06:11:28;101813.50;;;11.85
67509;BMP280;54354;44.724;11.284;2023-03-18T06:13:55;101817.69;;;11.89
67509;BMP280;54354;44.724;11.284;2023-03-18T06:16:21;101814.25;;;11.92
67509;BMP280;54354;44.724;11.284;2023-03-18T06:18:52;101816.84;;;12.00
67509;BMP280;54354;44.724;11.284;2023-03-18T06:21:18;101813.41;;;12.06
67509;BMP280;54354;44.724;11.284;2023-03-18T06:23:44;101816.44;;;12.19
67509;BMP280;54354;44.724;11.284;2023-03-18T06:26:10;101817.50;;;12.29
67509;BMP280;54354;44.724;11.284;2023-03-18T06:28:43;101824.28;;;12.40
67509;BMP280;54354;44.724;11.284;2023-03-18T06:31:09;101830.66;;;12.50
67509;BMP280;54354;44.724;11.284;2023-03-18T06:33:36;101829.06;;;12.60
67509;BMP280;54354;44.724;11.284;2023-03-18T06:36:04;101827.13;;;12.67
67509;BMP280;54354;44.724;11.284;2023-03-18T06:38:30;101827.06;;;12.75
67509;BMP280;54354;44.724;11.284;2023-03-18T06:40:57;101834.22;;;12.81
67509;BMP280;54354;44.724;11.284;2023-03-18T06:43:24;101831.50;;;12.92
67509;BMP280;54354;44.724;11.284;2023-03-18T06:45:52;101836.72;;;13.03
67509;BMP280;54354;44.724;11.284;2023-03-18T06:48:19;101839.69;;;13.12
67509;BMP280;54354;44.724;11.284;2023-03-18T06:50:46;101838.50;;;13.16
67509;BMP280;54354;44.724;11.284;2023-03-18T06:53:18;101846.44;;;13.20
67509;BMP280;54354;44.724;11.284;2023-03-18T06:55:46;101841.50;;;13.22
67509;BMP280;54354;44.724;11.284;2023-03-18T06:58:13;101836.53;;;13.24
67509;BMP280;54354;44.724;11.284;2023-03-18T07:00:46;101837.25;;;13.28
67509;BMP280;54354;44.724;11.284;2023-03-18T07:03:19;101827.69;;;13.34
67509;BMP280;54354;44.724;11.284;2023-03-18T07:05:47;101837.09;;;13.42
67509;BMP280;54354;44.724;11.284;2023-03-18T07:08:13;101829.41;;;13.51
67509;BMP280;54354;44.724;11.284;2023-03-18T07:10:40;101841.00;;;13.72
67509;BMP280;54354;44.724;11.284;2023-03-18T07:13:10;101835.06;;;14.45
67509;BMP280;54354;44.724;11.284;2023-03-18T07:15:38;101841.06;;;14.26
67509;BMP280;54354;44.724;11.284;2023-03-18T07:18:04;101841.44;;;14.28
67509;BMP280;54354;44.724;11.284;2023-03-18T07:20:31;101832.97;;;14.33
67509;BMP280;54354;44.724;11.284;2023-03-18T07:22:58;101837.09;;;14.38
67509;BMP280;54354;44.724;11.284;2023-03-18T07:25:23;101842.28;;;14.48
67509;BMP280;54354;44.724;11.284;2023-03-18T07:27:49;101845.13;;;14.61
67509;BMP280;54354;44.724;11.284;2023-03-18T07:30:15;101842.59;;;14.77
67509;BMP280;54354;44.724;11.284;2023-03-18T07:32:42;101850.69;;;14.94
67509;BMP280;54354;44.724;11.284;2023-03-18T07:35:08;101854.56;;;15.12
67509;BMP280;54354;44.724;11.284;2023-03-18T07:37:35;101853.22;;;15.24
67509;BMP280;54354;44.724;11.284;2023-03-18T07:40:00;101856.84;;;15.34
67509;BMP280;54354;44.724;11.284;2023-03-18T07:42:26;101857.88;;;15.40
67509;BMP280;54354;44.724;11.284;2023-03-18T07:44:52;101865.31;;;15.49
67509;BMP280;54354;44.724;11.284;2023-03-18T07:47:19;101866.72;;;15.57
67509;BMP280;54354;44.724;11.284;2023-03-18T07:49:45;101864.91;;;15.70
67509;BMP280;54354;44.724;11.284;2023-03-18T07:52:10;101869.13;;;15.87
67509;BMP280;54354;44.724;11.284;2023-03-18T07:54:36;101869.44;;;16.09
67509;BMP280;54354;44.724;11.284;2023-03-18T07:57:01;101874.31;;;16.31
67509;BMP280;54354;44.724;11.284;2023-03-18T07:59:28;101875.84;;;16.48
67509;BMP280;54354;44.724;11.284;2023-03-18T08:01:54;101876.56;;;16.65
67509;BMP280;54354;44.724;11.284;2023-03-18T08:04:19;101881.16;;;16.81
67509;BMP280;54354;44.724;11.284;2023-03-18T08:06:45;101877.38;;;16.94
67509;BMP280;54354;44.724;11.284;2023-03-18T08:09:14;101872.06;;;17.07
67509;BMP280;54354;44.724;11.284;2023-03-18T08:11:40;101883.41;;;17.27
67509;BMP280;54354;44.724;11.284;2023-03-18T08:14:05;101885.44;;;17.36
67509;BMP280;54354;44.724;11.284;2023-03-18T08:16:31;101889.25;;;17.51
67509;BMP280;54354;44.724;11.284;2023-03-18T08:18:56;101892.69;;;17.65
67509;BMP280;54354;44.724;11.284;2023-03-18T08:21:22;101898.91;;;17.74
67509;BMP280;54354;44.724;11.284;2023-03-18T08:23:48;101891.44;;;17.82
67509;BMP280;54354;44.724;11.284;2023-03-18T08:26:14;101888.75;;;17.95
67509;BMP280;54354;44.724;11.284;2023-03-18T08:28:40;101888.03;;;18.07
67509;BMP280;54354;44.724;11.284;2023-03-18T08:31:05;101883.59;;;18.13
67509;BMP280;54354;44.724;11.284;2023-03-18T08:33:32;101887.25;;;18.19
67509;BMP280;54354;44.724;11.284;2023-03-18T08:35:57;101894.00;;;18.24
67509;BMP280;54354;44.724;11.284;2023-03-18T08:38:23;101882.50;;;18.23
67509;BMP280;54354;44.724;11.284;2023-03-18T08:40:49;101881.13;;;18.19
67509;BMP280;54354;44.724;11.284;2023-03-18T08:43:15;101886.91;;;18.17
67509;BMP280;54354;44.724;11.284;2023-03-18T08:45:41;101891.22;;;18.14
67509;BMP280;54354;44.724;11.284;2023-03-18T08:48:07;101883.94;;;18.15
67509;BMP280;54354;44.724;11.284;2023-03-18T08:50:34;101879.75;;;18.14
67509;BMP280;54354;44.724;11.284;2023-03-18T08:53:01;101890.81;;;18.16
67509;BMP280;54354;44.724;11.284;2023-03-18T08:55:34;101890.91;;;18.12
67509;BMP280;54354;44.724;11.284;2023-03-18T08:58:02;101881.78;;;18.10
67509;BMP280;54354;44.724;11.284;2023-03-18T09:00:28;101886.81;;;18.08
67509;BMP280;54354;44.724;11.284;2023-03-18T09:02:54;101891.03;;;18.09
67509;BMP280;54354;44.724;11.284;2023-03-18T09:05:19;101889.84;;;18.10
67509;BMP280;54354;44.724;11.284;2023-03-18T09:07:45;101885.97;;;18.11
67509;BMP280;54354;44.724;11.284;2023-03-18T09:10:12;101890.47;;;18.14
67509;BMP280;54354;44.724;11.284;2023-03-18T09:12:40;101885.44;;;18.16
67509;BMP280;54354;44.724;11.284;2023-03-18T09:15:07;101883.38;;;18.20
67509;BMP280;54354;44.724;11.284;2023-03-18T09:17:35;101876.41;;;18.23
67509;BMP280;54354;44.724;11.284;2023-03-18T09:35:13;101879.63;;;18.30
67509;BMP280;54354;44.724;11.284;2023-03-18T09:37:40;101878.56;;;18.28
67509;BMP280;54354;44.724;11.284;2023-03-18T09:40:07;101878.88;;;18.30
67509;BMP280;54354;44.724;11.284;2023-03-18T09:42:57;101875.53;;;18.38
67509;BMP280;54354;44.724;11.284;2023-03-18T09:45:28;101870.94;;;18.39
67509;BMP280;54354;44.724;11.284;2023-03-18T09:48:23;101871.75;;;18.49
67509;BMP280;54354;44.724;11.284;2023-03-18T09:51:07;101883.56;;;18.51
67509;BMP280;54354;44.724;11.284;2023-03-18T09:53:45;101872.72;;;18.55
67509;BMP280;54354;44.724;11.284;2023-03-18T09:56:19;101879.88;;;18.58
67509;BMP280;54354;44.724;11.284;2023-03-18T09:58:58;101881.25;;;18.62
67509;BMP280;54354;44.724;11.284;2023-03-18T10:01:27;101880.75;;;19.11
67509;BMP280;54354;44.724;11.284;2023-03-18T10:04:03;101875.50;;;18.86
67509;BMP280;54354;44.724;11.284;2023-03-18T10:06:30;101870.13;;;18.86
67509;BMP280;54354;44.724;11.284;2023-03-18T10:11:29;101870.88;;;18.86
67509;BMP280;54354;44.724;11.284;2023-03-18T10:19:30;101870.81;;;18.99
67509;BMP280;54354;44.724;11.284;2023-03-18T10:22:18;101867.69;;;19.00
67509;BMP280;54354;44.724;11.284;2023-03-18T10:27:30;101859.91;;;18.93
67509;BMP280;54354;44.724;11.284;2023-03-18T10:32:52;101856.16;;;18.91
67509;BMP280;54354;44.724;11.284;2023-03-18T10:38:20;101864.06;;;18.94
67509;BMP280;54354;44.724;11.284;2023-03-18T10:40:47;101862.34;;;19.00
67509;BMP280;54354;44.724;11.284;2023-03-18T10:43:17;101860.09;;;18.99
67509;BMP280;54354;44.724;11.284;2023-03-18T10:45:45;101863.72;;;19.05
67509;BMP280;54354;44.724;11.284;2023-03-18T10:48:19;101858.75;;;19.04
67509;BMP280;54354;44.724;11.284;2023-03-18T10:51:11;101852.66;;;19.03
67509;BMP280;54354;44.724;11.284;2023-03-18T10:53:47;101848.34;;;19.06
67509;BMP280;54354;44.724;11.284;2023-03-18T10:56:15;101857.81;;;19.10
67509;BMP280;54354;44.724;11.284;2023-03-18T10:58:41;101853.44;;;19.13
67509;BMP280;54354;44.724;11.284;2023-03-18T11:01:11;101853.59;;;19.09
67509;BMP280;54354;44.724;11.284;2023-03-18T11:03:42;101850.91;;;19.09
67509;BMP280;54354;44.724;11.284;2023-03-18T11:06:16;101838.22;;;19.10
67509;BMP280;54354;44.724;11.284;2023-03-18T11:08:46;101834.25;;;19.14
67509;BMP280;54354;44.724;11.284;2023-03-18T11:11:24;101835.69;;;19.15
67509;BMP280;54354;44.724;11.284;2023-03-18T11:13:53;101835.59;;;19.19
67509;BMP280;54354;44.724;11.284;2023-03-18T11:16:32;101826.22;;;19.23
67509;BMP280;54354;44.724;11.284;2023-03-18T11:18:58;101824.59;;;19.26
67509;BMP280;54354;44.724;11.284;2023-03-18T11:21:30;101825.75;;;19.25
67509;BMP280;54354;44.724;11.284;2023-03-18T11:23:58;101825.00;;;19.24
67509;BMP280;54354;44.724;11.284;2023-03-18T11:29:12;101824.03;;;19.31
67509;BMP280;54354;44.724;11.284;2023-03-18T11:32:10;101822.31;;;19.46
67509;BMP280;54354;44.724;11.284;2023-03-18T11:34:53;101829.00;;;19.42
67509;BMP280;54354;44.724;11.284;2023-03-18T11:37:26;101835.97;;;19.39
67509;BMP280;54354;44.724;11.284;2023-03-18T11:40:05;101835.72;;;19.37
67509;BMP280;54354;44.724;11.284;2023-03-18T11:42:31;101830.94;;;19.41
67509;BMP280;54354;44.724;11.284;2023-03-18T11:45:00;101821.50;;;19.37
67509;BMP280;54354;44.724;11.284;2023-03-18T11:47:32;101824.50;;;19.39
67509;BMP280;54354;44.724;11.284;2023-03-18T11:50:01;101827.78;;;19.43
67509;BMP280;54354;44.724;11.284;2023-03-18T11:52:50;101822.91;;;19.50
67509;BMP280;54354;44.724;11.284;2023-03-18T12:01:04;101811.47;;;19.59
67509;BMP280;54354;44.724;11.284;2023-03-18T12:03:51;101808.19;;;19.55
67509;BMP280;54354;44.724;11.284;2023-03-18T12:06:32;101800.84;;;19.55
67509;BMP280;54354;44.724;11.284;2023-03-18T12:09:27;101787.41;;;19.65
67509;BMP280;54354;44.724;11.284;2023-03-18T12:12:21;101786.78;;;19.61
67509;BMP280;54354;44.724;11.284;2023-03-18T12:15:00;101783.38;;;19.60
67509;BMP280;54354;44.724;11.284;2023-03-18T12:17:52;101790.72;;;19.69
67509;BMP280;54354;44.724;11.284;2023-03-18T12:26:00;101771.66;;;19.76
67509;BMP280;54354;44.724;11.284;2023-03-18T12:34:04;101754.63;;;19.97
67509;BMP280;54354;44.724;11.284;2023-03-18T12:46:58;101727.91;;;20.03
67509;BMP280;54354;44.724;11.284;2023-03-18T12:49:32;101736.84;;;20.09
67509;BMP280;54354;44.724;11.284;2023-03-18T12:52:06;101731.78;;;20.11
67509;BMP280;54354;44.724;11.284;2023-03-18T12:54:40;101730.88;;;20.14
67509;BMP280;54354;44.724;11.284;2023-03-18T12:57:13;101727.75;;;20.16
67509;BMP280;54354;44.724;11.284;2023-03-18T12:59:44;101734.16;;;20.18
67509;BMP280;54354;44.724;11.284;2023-03-18T13:04:52;101716.66;;;20.23
67509;BMP280;54354;44.724;11.284;2023-03-18T13:07:24;101733.13;;;20.25
67509;BMP280;54354;44.724;11.284;2023-03-18T13:10:05;101725.34;;;20.27
67509;BMP280;54354;44.724;11.284;2023-03-18T13:12:38;101728.19;;;20.32
67509;BMP280;54354;44.724;11.284;2023-03-18T13:17:59;101723.97;;;20.40
67509;BMP280;54354;44.724;11.284;2023-03-18T13:20:30;101721.88;;;20.45
67509;BMP280;54354;44.724;11.284;2023-03-18T13:39:42;101698.31;;;20.72
67509;BMP280;54354;44.724;11.284;2023-03-18T13:42:33;101690.56;;;20.75
67509;BMP280;54354;44.724;11.284;2023-03-18T13:47:37;101685.91;;;20.75
67509;BMP280;54354;44.724;11.284;2023-03-18T13:50:32;101686.16;;;20.86
67509;BMP280;54354;44.724;11.284;2023-03-18T13:52:59;101678.81;;;20.87
67509;BMP280;54354;44.724;11.284;2023-03-18T13:58:18;101678.81;;;20.87
67509;BMP280;54354;44.724;11.284;2023-03-18T14:00:44;101676.28;;;20.92
67509;BMP280;54354;44.724;11.284;2023-03-18T14:05:40;101675.00;;;21.02
67509;BMP280;54354;44.724;11.284;2023-03-18T14:08:42;101670.16;;;21.07
67509;BMP280;54354;44.724;11.284;2023-03-18T14:14:00;101659.56;;;21.03
67509;BMP280;54354;44.724;11.284;2023-03-18T14:19:19;101655.34;;;21.11
67509;BMP280;54354;44.724;11.284;2023-03-18T14:21:50;101655.53;;;21.08
67509;BMP280;54354;44.724;11.284;2023-03-18T14:32:03;101649.41;;;21.07
67509;BMP280;54354;44.724;11.284;2023-03-18T14:34:52;101654.78;;;21.07
67509;BMP280;54354;44.724;11.284;2023-03-18T14:37:23;101648.63;;;21.07
67509;BMP280;54354;44.724;11.284;2023-03-18T14:39:51;101642.63;;;21.12
67509;BMP280;54354;44.724;11.284;2023-03-18T14:42:29;101637.53;;;21.14
67509;BMP280;54354;44.724;11.284;2023-03-18T14:45:11;101643.22;;;21.16
67509;BMP280;54354;44.724;11.284;2023-03-18T14:47:40;101651.69;;;21.23
67509;BMP280;54354;44.724;11.284;2023-03-18T14:53:09;101650.94;;;21.23
67509;BMP280;54354;44.724;11.284;2023-03-18T14:55:33;101655.69;;;21.28
67509;BMP280;54354;44.724;11.284;2023-03-18T14:58:00;101648.38;;;21.28
67509;BMP280;54354;44.724;11.284;2023-03-18T15:00:28;101654.94;;;21.27
67509;BMP280;54354;44.724;11.284;2023-03-18T15:03:20;101644.56;;;21.35
67509;BMP280;54354;44.724;11.284;2023-03-18T15:05:46;101648.50;;;21.34
67509;BMP280;54354;44.724;11.284;2023-03-18T15:08:15;101642.97;;;21.28
67509;BMP280;54354;44.724;11.284;2023-03-18T15:10:45;101647.44;;;21.32
67509;BMP280;54354;44.724;11.284;2023-03-18T15:13:14;101651.63;;;21.33
67509;BMP280;54354;44.724;11.284;2023-03-18T15:15:41;101644.56;;;21.35
67509;BMP280;54354;44.724;11.284;2023-03-18T15:18:34;101639.91;;;21.36
67509;BMP280;54354;44.724;11.284;2023-03-18T15:21:08;101658.22;;;21.32
67509;BMP280;54354;44.724;11.284;2023-03-18T15:23:35;101658.34;;;21.37
67509;BMP280;54354;44.724;11.284;2023-03-18T15:26:37;101658.72;;;21.45
67509;BMP280;54354;44.724;11.284;2023-03-18T15:29:28;101653.50;;;21.41
67509;BMP280;54354;44.724;11.284;2023-03-18T15:34:50;101642.91;;;21.38
67509;BMP280;54354;44.724;11.284;2023-03-18T15:39:54;101648.75;;;21.36
67509;BMP280;54354;44.724;11.284;2023-03-18T15:42:23;101636.19;;;21.33
67509;BMP280;54354;44.724;11.284;2023-03-18T15:44:58;101639.81;;;21.30
67509;BMP280;54354;44.724;11.284;2023-03-18T15:47:29;101629.03;;;21.30
67509;BMP280;54354;44.724;11.284;2023-03-18T15:50:12;101632.19;;;21.28
67509;BMP280;54354;44.724;11.284;2023-03-18T15:52:40;101636.84;;;21.28
67509;BMP280;54354;44.724;11.284;2023-03-18T15:57:54;101637.13;;;21.30
67509;BMP280;54354;44.724;11.284;2023-03-18T16:00:20;101641.78;;;21.29
67509;BMP280;54354;44.724;11.284;2023-03-18T16:02:47;101646.84;;;21.27
67509;BMP280;54354;44.724;11.284;2023-03-18T16:05:20;101635.50;;;21.23
67509;BMP280;54354;44.724;11.284;2023-03-18T16:07:47;101634.59;;;21.26
67509;BMP280;54354;44.724;11.284;2023-03-18T16:10:13;101632.81;;;21.23
67509;BMP280;54354;44.724;11.284;2023-03-18T16:12:50;101638.69;;;21.22
67509;BMP280;54354;44.724;11.284;2023-03-18T16:15:18;101640.34;;;21.19
67509;BMP280;54354;44.724;11.284;2023-03-18T16:17:52;101642.00;;;21.17
67509;BMP280;54354;44.724;11.284;2023-03-18T16:20:23;101642.28;;;21.19